Time;durP1;ratioP1;P1;durP2;ratioP2;P2;SDS_P1;SDS_P2;PMS_P1;PMS_P2;Temp;Humidity;BMP_temperature;BMP_pressure;BME280_temperature;BME280_humidity;BME280_pressure;Samples;Min_cycle;Max_cycle;Signal;HPM_P1;HPM_P2
2022/05/25 00:00:20;;;;;;;1.50;1.40;;;26.20;53.10;;;;;;5116027;28;20422;-84
2022/05/25 00:02:49;;;;;;;1.70;1.47;;;26.20;53.10;;;;;;5116693;28;20426;-85
2022/05/25 00:05:23;;;;;;;1.70;1.50;;;26.10;53.00;;;;;;5100014;28;20489;-85
2022/05/25 00:07:51;;;;;;;1.77;1.20;;;26.10;53.00;;;;;;5115941;28;20418;-85
2022/05/25 00:10:20;;;;;;;4.47;1.90;;;26.10;53.00;;;;;;5117231;28;20450;-84
2022/05/25 00:12:50;;;;;;;1.93;1.40;;;26.10;53.00;;;;;;5115964;28;20415;-84
2022/05/25 00:15:19;;;;;;;2.03;1.50;;;26.10;53.60;;;;;;5131518;28;20391;-84
2022/05/25 00:17:47;;;;;;;1.67;1.57;;;26.10;53.00;;;;;;5115829;28;20410;-84
2022/05/25 00:20:18;;;;;;;1.50;1.37;;;26.10;53.00;;;;;;5116465;28;20418;-84
2022/05/25 00:22:51;;;;;;;3.30;1.10;;;26.10;53.00;;;;;;5133392;28;20407;-84
2022/05/25 00:25:24;;;;;;;2.00;1.43;;;26.10;53.10;;;;;;5114407;28;20434;-83
2022/05/25 00:27:51;;;;;;;1.57;1.20;;;26.10;53.00;;;;;;5117907;28;20419;-84
2022/05/25 00:30:23;;;;;;;1.27;1.07;;;26.10;53.10;;;;;;5134476;28;20454;-84
2022/05/25 00:32:49;;;;;;;1.60;1.27;;;26.10;53.00;;;;;;5121034;28;20466;-84
2022/05/25 00:35:18;;;;;;;1.60;1.33;;;26.10;53.10;;;;;;5138423;27;20419;-83
2022/05/25 00:37:44;;;;;;;2.90;1.57;;;26.10;53.10;;;;;;5102513;28;20494;-83
2022/05/25 00:40:18;;;;;;;1.60;1.10;;;26.10;53.10;;;;;;5135264;27;20505;-83
2022/05/25 00:42:44;;;;;;;1.87;1.47;;;26.10;53.10;;;;;;5117794;28;20443;-84
2022/05/25 00:45:12;;;;;;;2.27;1.20;;;26.10;53.10;;;;;;5117054;28;20422;-84
2022/05/25 00:47:41;;;;;;;1.70;1.40;;;26.10;53.10;;;;;;5099865;28;20425;-84
2022/05/25 00:50:12;;;;;;;1.73;1.10;;;26.10;53.10;;;;;;5118215;27;20448;-84
2022/05/25 00:52:42;;;;;;;1.60;1.30;;;26.10;53.00;;;;;;5101483;28;20403;-83
2022/05/25 00:55:13;;;;;;;1.53;1.43;;;26.10;53.10;;;;;;5098850;27;20416;-84
2022/05/25 00:57:45;;;;;;;1.50;1.37;;;26.10;53.10;;;;;;5116519;28;20903;-84
2022/05/25 01:00:35;;;;;;;1.50;1.10;;;26.10;53.10;;;;;;5116724;28;20439;-84
2022/05/25 01:03:08;;;;;;;2.13;1.50;;;26.10;53.10;;;;;;5116249;27;20429;-84
2022/05/25 01:05:56;;;;;;;1.50;1.27;;;26.10;53.60;;;;;;5149553;27;20417;-84
2022/05/25 01:09:10;;;;;;;1.50;1.30;;;26.10;53.10;;;;;;5117143;28;20433;-84
2022/05/25 01:11:57;;;;;;;1.90;1.40;;;26.10;53.10;;;;;;5064973;28;20421;-84
2022/05/25 01:14:53;;;;;;;1.93;1.73;;;26.10;53.10;;;;;;5063137;28;20414;-84
2022/05/25 01:17:35;;;;;;;1.40;1.30;;;26.10;53.10;;;;;;5086891;28;20406;-83
2022/05/25 01:20:15;;;;;;;2.00;1.80;;;26.10;53.20;;;;;;5087093;28;20485;-83
2022/05/25 01:23:26;;;;;;;1.50;1.10;;;26.10;53.20;;;;;;5065622;28;20425;-83
2022/05/25 01:26:30;;;;;;;1.90;1.73;;;26.10;53.20;;;;;;5011660;28;20474;-83
2022/05/25 01:29:05;;;;;;;1.90;1.50;;;26.10;53.20;;;;;;5047023;28;20418;-85
2022/05/25 01:31:54;;;;;;;2.27;1.20;;;26.00;53.10;;;;;;5044853;28;20419;-83
2022/05/25 01:34:51;;;;;;;1.57;1.43;;;26.10;53.20;;;;;;5048892;28;20819;-83
2022/05/25 01:37:42;;;;;;;1.40;1.20;;;26.10;53.20;;;;;;5049603;28;20410;-84
2022/05/25 01:40:22;;;;;;;1.80;1.40;;;26.10;53.20;;;;;;5040842;28;20417;-84
2022/05/25 01:43:11;;;;;;;1.40;1.30;;;26.10;53.20;;;;;;5049195;28;20422;-83
2022/05/25 01:45:49;;;;;;;1.43;1.10;;;26.10;53.20;;;;;;5028647;28;20418;-83
2022/05/25 01:48:21;;;;;;;1.60;1.20;;;26.10;53.20;;;;;;5106060;27;20480;-83
2022/05/25 01:50:56;;;;;;;1.87;1.50;;;26.10;53.20;;;;;;5135542;27;20449;-83
2022/05/25 01:53:26;;;;;;;1.47;1.20;;;26.10;53.20;;;;;;5149101;27;20491;-84
2022/05/25 01:55:59;;;;;;;1.60;1.23;;;26.10;53.20;;;;;;5148521;27;20410;-84
2022/05/25 01:58:27;;;;;;;1.33;1.13;;;26.10;53.20;;;;;;5128186;27;20449;-83
2022/05/25 02:00:59;;;;;;;1.50;1.10;;;26.10;53.20;;;;;;5119891;28;20411;-84
2022/05/25 02:06:48;;;;;;;1.40;1.30;;;26.10;53.20;;;;;;5113279;28;20951;-84
2022/05/25 02:09:38;;;;;;;1.50;1.30;;;26.10;53.20;;;;;;5129915;28;20456;-84
2022/05/25 02:12:27;;;;;;;2.50;2.30;;;26.10;53.20;;;;;;5112936;28;20392;-84
2022/05/25 02:15:11;;;;;;;1.60;1.10;;;26.00;53.20;;;;;;5113068;28;20385;-84
2022/05/25 02:17:58;;;;;;;1.60;1.17;;;26.00;53.20;;;;;;5129077;28;20410;-84
2022/05/25 02:20:43;;;;;;;1.40;1.17;;;26.00;53.20;;;;;;5113144;28;20395;-84
2022/05/25 02:23:43;;;;;;;1.33;1.00;;;26.00;53.20;;;;;;5095443;28;20406;-84
2022/05/25 02:26:12;;;;;;;1.33;1.10;;;26.00;53.20;;;;;;5113045;28;20418;-83
2022/05/25 02:28:57;;;;;;;1.30;1.20;;;26.00;53.20;;;;;;5112682;28;20475;-84
2022/05/25 02:31:26;;;;;;;1.60;1.17;;;26.00;53.20;;;;;;5094912;28;20419;-84
2022/05/25 02:33:56;;;;;;;2.70;1.40;;;26.00;53.20;;;;;;5125350;28;20471;-84
2022/05/25 02:36:23;;;;;;;1.40;1.20;;;26.00;53.20;;;;;;5114795;28;20406;-84
2022/05/25 02:38:49;;;;;;;2.07;1.40;;;26.10;53.30;;;;;;5097943;28;20414;-83
2022/05/25 02:41:27;;;;;;;1.40;1.17;;;26.00;53.20;;;;;;5133108;28;20497;-83
2022/05/25 02:43:55;;;;;;;1.30;1.03;;;26.00;53.20;;;;;;5114830;28;20403;-84
2022/05/25 02:46:21;;;;;;;1.97;1.40;;;26.00;53.10;;;;;;5114652;28;20415;-84
2022/05/25 02:48:46;;;;;;;1.60;1.23;;;26.00;53.10;;;;;;5114709;28;20483;-83
2022/05/25 02:51:12;;;;;;;1.57;1.20;;;26.10;53.20;;;;;;5114511;28;20230;-83
2022/05/25 02:53:38;;;;;;;1.10;0.90;;;26.00;53.20;;;;;;5132618;28;20168;-84
2022/05/25 02:56:05;;;;;;;2.03;1.10;;;26.00;53.20;;;;;;5132823;28;20165;-84
2022/05/25 02:58:31;;;;;;;1.73;1.30;;;26.10;53.20;;;;;;5115012;28;20185;-84
2022/05/25 03:00:56;;;;;;;1.37;1.10;;;26.10;53.20;;;;;;5114787;28;20511;-84
2022/05/25 03:03:23;;;;;;;1.80;1.20;;;26.10;53.20;;;;;;5132510;28;20173;-84
2022/05/25 03:09:17;;;;;;;1.50;1.20;;;26.10;53.20;;;;;;5089127;28;20403;-84
2022/05/25 03:11:42;;;;;;;1.20;1.00;;;26.00;53.20;;;;;;5072451;28;20415;-83
2022/05/25 03:14:08;;;;;;;1.60;1.20;;;26.00;53.20;;;;;;5074713;28;20412;-83
2022/05/25 03:16:34;;;;;;;1.77;1.27;;;26.00;53.70;;;;;;5092372;28;20174;-83
2022/05/25 03:19:00;;;;;;;1.40;1.10;;;26.10;53.30;;;;;;5107152;28;20254;-83
2022/05/25 03:21:25;;;;;;;1.83;1.10;;;26.00;53.20;;;;;;5092639;28;20181;-83
2022/05/25 03:23:52;;;;;;;1.97;1.10;;;26.00;53.20;;;;;;5092657;28;20178;-84
2022/05/25 03:26:18;;;;;;;1.80;1.40;;;26.00;53.20;;;;;;5090657;28;20249;-84
2022/05/25 03:28:44;;;;;;;1.50;1.20;;;26.00;53.20;;;;;;5093620;28;20397;-83
2022/05/25 03:31:11;;;;;;;2.10;1.83;;;26.00;53.20;;;;;;5075478;28;20460;-83
2022/05/25 03:33:36;;;;;;;1.77;1.30;;;26.00;53.20;;;;;;5090727;28;20389;-83
2022/05/25 03:36:03;;;;;;;1.57;1.30;;;26.00;53.20;;;;;;5073893;28;20412;-83
2022/05/25 03:38:30;;;;;;;1.23;0.90;;;26.00;53.80;;;;;;5094958;28;20174;-84
2022/05/25 03:40:57;;;;;;;1.33;1.10;;;26.00;53.20;;;;;;5115299;28;20501;-83
2022/05/25 03:43:30;;;;;;;1.60;1.30;;;26.00;53.20;;;;;;5130616;28;20430;-83
2022/05/25 03:45:57;;;;;;;1.30;1.10;;;26.00;53.20;;;;;;5131810;28;20433;-83
2022/05/25 03:48:22;;;;;;;1.60;1.17;;;26.00;53.20;;;;;;5130586;28;20486;-83
2022/05/25 03:50:49;;;;;;;1.20;1.00;;;26.00;53.20;;;;;;5113723;28;20466;-83
2022/05/25 03:53:15;;;;;;;1.87;1.20;;;26.00;53.20;;;;;;5114063;28;20169;-83
2022/05/25 03:55:42;;;;;;;1.13;1.00;;;26.00;53.20;;;;;;5130987;28;20415;-82
2022/05/25 03:58:09;;;;;;;1.83;1.67;;;26.00;53.20;;;;;;5113489;28;20419;-83
2022/05/25 04:00:36;;;;;;;1.87;1.30;;;26.00;53.20;;;;;;5111881;28;20406;-83
2022/05/25 04:03:03;;;;;;;1.37;1.03;;;26.00;53.20;;;;;;5131094;28;20401;-83
2022/05/25 04:05:31;;;;;;;1.53;1.20;;;26.00;53.20;;;;;;5136053;27;20766;-82
2022/05/25 04:07:58;;;;;;;1.50;1.00;;;26.00;53.20;;;;;;5155183;27;20401;-83
2022/05/25 04:10:25;;;;;;;1.83;1.30;;;26.00;53.20;;;;;;5138104;27;20446;-82
2022/05/25 04:12:51;;;;;;;2.50;1.00;;;26.00;53.20;;;;;;5154697;27;20784;-83
2022/05/25 04:15:20;;;;;;;1.50;1.20;;;26.00;53.20;;;;;;5155926;27;20422;-83
2022/05/25 04:17:46;;;;;;;1.40;1.20;;;26.00;53.20;;;;;;5138831;27;20408;-83
2022/05/25 04:20:13;;;;;;;1.57;1.10;;;26.00;53.20;;;;;;5139822;27;20481;-83
2022/05/25 04:22:40;;;;;;;1.30;1.10;;;26.00;53.20;;;;;;5156718;27;20505;-83
2022/05/25 04:25:10;;;;;;;1.80;1.20;;;26.00;53.20;;;;;;5127356;28;20422;-83
2022/05/25 04:27:37;;;;;;;1.70;1.10;;;26.00;53.20;;;;;;5119007;28;20426;-83
2022/05/25 04:30:09;;;;;;;1.93;1.20;;;26.00;53.20;;;;;;5118076;28;20517;-83
2022/05/25 04:32:35;;;;;;;1.57;1.10;;;26.00;53.20;;;;;;5102162;28;20422;-83
2022/05/25 04:35:06;;;;;;;1.13;0.90;;;26.00;53.20;;;;;;5116923;28;20468;-83
2022/05/25 04:40:32;;;;;;;1.40;1.10;;;26.00;53.20;;;;;;5133898;28;20402;-83
2022/05/25 04:43:00;;;;;;;1.20;0.93;;;26.00;53.20;;;;;;5095452;28;20410;-82
2022/05/25 04:45:28;;;;;;;2.07;1.30;;;26.00;53.20;;;;;;5106613;27;20419;-83
2022/05/25 04:47:56;;;;;;;1.60;1.20;;;26.00;53.20;;;;;;5136738;27;20406;-83
2022/05/25 04:50:24;;;;;;;1.43;1.17;;;26.00;53.30;;;;;;5145839;27;20951;-83
2022/05/25 04:52:51;;;;;;;1.40;1.00;;;26.00;53.20;;;;;;5115817;28;20423;-83
2022/05/25 04:58:02;;;;;;;1.40;1.10;;;26.00;53.20;;;;;;5118354;28;20473;-83
2022/05/25 05:00:29;;;;;;;1.30;1.20;;;26.00;53.20;;;;;;5134068;28;20452;-84
2022/05/25 05:02:55;;;;;;;1.97;1.13;;;26.00;53.20;;;;;;5134629;28;20474;-85
2022/05/25 05:05:21;;;;;;;1.30;1.17;;;26.00;53.10;;;;;;5132719;28;20406;-83
2022/05/25 05:07:47;;;;;;;2.27;1.07;;;26.00;53.00;;;;;;5114642;28;20509;-83
2022/05/25 05:10:13;;;;;;;2.80;1.10;;;26.00;53.00;;;;;;5132741;28;20438;-83
2022/05/25 05:12:42;;;;;;;1.47;1.30;;;26.00;52.90;;;;;;5133043;28;20399;-83
2022/05/25 05:15:08;;;;;;;1.33;1.10;;;26.00;52.90;;;;;;5097578;28;20426;-83
2022/05/25 05:17:34;;;;;;;1.47;1.20;;;26.00;52.90;;;;;;5114765;28;20415;-83
2022/05/25 05:20:00;;;;;;;1.23;1.10;;;26.00;52.90;;;;;;5132772;28;20414;-83
2022/05/25 05:22:26;;;;;;;1.70;1.07;;;26.00;52.90;;;;;;5132213;28;20399;-83
2022/05/25 05:24:51;;;;;;;1.37;1.10;;;26.00;52.90;;;;;;5114510;28;20240;-83
2022/05/25 05:27:17;;;;;;;1.33;1.10;;;26.00;52.90;;;;;;5114005;28;20277;-83
2022/05/25 05:29:43;;;;;;;1.60;1.37;;;26.00;52.90;;;;;;5113789;28;20260;-83
2022/05/25 05:32:10;;;;;;;1.27;0.90;;;26.00;52.90;;;;;;5131636;28;20169;-83
2022/05/25 05:34:37;;;;;;;1.77;1.27;;;25.90;52.80;;;;;;5113778;28;20184;-83
2022/05/25 05:37:09;;;;;;;1.93;1.10;;;26.00;52.90;;;;;;5096770;28;20422;-83
2022/05/25 05:39:38;;;;;;;1.30;1.20;;;26.00;52.90;;;;;;5113638;28;20410;-84
2022/05/25 05:42:07;;;;;;;1.30;1.20;;;25.90;52.80;;;;;;5113640;28;20904;-84
2022/05/25 05:44:40;;;;;;;1.43;1.13;;;26.00;52.90;;;;;;5113626;28;20447;-84
2022/05/25 05:47:10;;;;;;;1.43;1.17;;;26.00;52.90;;;;;;5131169;28;20494;-84
2022/05/25 05:49:37;;;;;;;2.63;1.23;;;26.00;52.90;;;;;;5113511;28;20452;-84
2022/05/25 05:52:04;;;;;;;1.30;1.00;;;25.90;52.80;;;;;;5113366;28;20410;-84
2022/05/25 05:54:30;;;;;;;1.83;1.23;;;26.00;52.80;;;;;;5113347;28;20415;-85
2022/05/25 05:56:57;;;;;;;1.40;1.20;;;26.00;52.80;;;;;;5131312;28;20415;-84
2022/05/25 05:59:22;;;;;;;1.43;1.10;;;26.00;52.80;;;;;;5113277;28;20446;-84
2022/05/25 06:01:48;;;;;;;2.03;1.13;;;26.00;52.80;;;;;;5131454;28;20414;-84
2022/05/25 06:04:14;;;;;;;2.70;1.00;;;26.00;52.80;;;;;;5113426;28;20227;-84
2022/05/25 06:06:40;;;;;;;1.77;1.43;;;26.00;52.80;;;;;;5130676;28;20566;-84
2022/05/25 06:09:06;;;;;;;1.33;1.13;;;26.00;52.80;;;;;;5112572;28;20185;-84
2022/05/25 06:11:36;;;;;;;1.53;1.10;;;26.00;52.80;;;;;;5112359;28;20181;-83
2022/05/25 06:14:02;;;;;;;1.40;1.10;;;26.00;52.80;;;;;;5113907;28;20158;-83
2022/05/25 06:19:27;;;;;;;1.30;1.00;;;26.00;52.80;;;;;;5130917;28;20248;-83
2022/05/25 06:21:58;;;;;;;1.47;1.10;;;26.00;52.80;;;;;;5130783;28;20394;-83
2022/05/25 06:24:24;;;;;;;1.50;1.03;;;26.00;52.80;;;;;;5112311;28;20418;-84
2022/05/25 06:26:50;;;;;;;1.20;0.97;;;26.00;52.80;;;;;;5130000;28;20425;-83
2022/05/25 06:29:17;;;;;;;1.60;1.13;;;26.00;52.80;;;;;;5129992;28;20459;-84
2022/05/25 06:31:43;;;;;;;1.73;1.37;;;26.00;52.80;;;;;;5128018;27;20187;-84
2022/05/25 06:34:09;;;;;;;1.50;1.20;;;26.00;52.80;;;;;;5111838;28;20419;-83
2022/05/25 06:36:35;;;;;;;1.47;1.00;;;26.00;52.80;;;;;;5130523;28;20459;-83
2022/05/25 06:39:01;;;;;;;2.07;1.57;;;26.00;52.80;;;;;;5150382;27;20418;-84
2022/05/25 06:41:28;;;;;;;1.83;1.23;;;26.00;52.80;;;;;;5133214;27;20418;-83
2022/05/25 06:43:54;;;;;;;1.27;1.17;;;26.00;52.80;;;;;;5132709;27;20414;-83
2022/05/25 06:46:21;;;;;;;1.97;1.27;;;26.00;52.80;;;;;;5132752;27;20414;-82
2022/05/25 06:48:53;;;;;;;1.60;1.20;;;26.00;52.80;;;;;;5131782;27;20926;-84
2022/05/25 06:51:22;;;;;;;1.60;1.13;;;26.00;52.90;;;;;;5095788;28;20477;-82
2022/05/25 06:53:49;;;;;;;1.70;1.10;;;26.00;52.90;;;;;;5095489;28;20430;-83
2022/05/25 06:56:18;;;;;;;1.53;1.00;;;26.00;52.90;;;;;;5111906;28;20417;-83
2022/05/25 06:58:44;;;;;;;1.40;1.23;;;26.00;52.90;;;;;;5094970;28;20533;-83
2022/05/25 07:04:33;;;;;;;1.70;1.00;;;26.00;52.90;;;;;;5129824;28;20217;-83
2022/05/25 07:07:01;;;;;;;1.60;1.47;;;26.00;52.90;;;;;;5129064;28;20410;-83
2022/05/25 07:09:27;;;;;;;1.43;1.20;;;26.00;52.90;;;;;;5129884;28;20451;-83
2022/05/25 07:11:53;;;;;;;2.37;1.20;;;26.00;52.90;;;;;;5111569;28;20448;-83
2022/05/25 07:14:18;;;;;;;1.80;1.23;;;26.00;52.90;;;;;;5129488;28;20631;-83
2022/05/25 07:16:44;;;;;;;1.83;1.30;;;26.10;53.00;;;;;;5111894;28;20168;-83
2022/05/25 07:19:10;;;;;;;1.43;1.33;;;26.10;53.00;;;;;;5129867;28;20169;-83
2022/05/25 07:21:36;;;;;;;1.80;1.33;;;26.10;52.90;;;;;;5112079;28;20249;-83
2022/05/25 07:24:02;;;;;;;2.77;1.37;;;26.10;52.90;;;;;;5111647;28;20176;-84
2022/05/25 07:26:33;;;;;;;2.33;1.20;;;26.00;52.90;;;;;;5111938;28;20403;-84
2022/05/25 07:29:00;;;;;;;1.40;1.10;;;26.10;52.90;;;;;;5113085;27;20411;-83
2022/05/25 07:31:42;;;;;;;2.07;1.57;;;26.10;52.90;;;;;;5143751;27;20429;-84
2022/05/25 07:34:23;;;;;;;3.63;1.30;;;26.10;53.50;;;;;;5129887;28;20399;-83
2022/05/25 07:36:55;;;;;;;1.40;1.10;;;26.10;52.90;;;;;;5112310;28;20434;-82
2022/05/25 07:39:32;;;;;;;1.60;1.27;;;26.10;52.90;;;;;;5129057;28;20402;-82
2022/05/25 07:42:00;;;;;;;1.77;1.20;;;26.10;52.90;;;;;;5146399;28;20421;-82
2022/05/25 07:44:36;;;;;;;2.13;1.40;;;26.10;52.90;;;;;;5130205;28;20419;-83
2022/05/25 07:47:04;;;;;;;2.13;1.27;;;26.10;52.90;;;;;;5130101;28;20401;-83
2022/05/25 07:49:30;;;;;;;2.13;1.30;;;26.10;52.90;;;;;;5110976;28;20454;-83
2022/05/25 07:51:57;;;;;;;1.30;1.10;;;26.10;52.90;;;;;;5129345;28;20440;-82
2022/05/25 07:54:24;;;;;;;2.63;1.23;;;26.10;52.90;;;;;;5111652;28;20417;-82
2022/05/25 07:56:51;;;;;;;2.87;1.57;;;26.10;52.90;;;;;;5130249;28;20407;-82
2022/05/25 07:59:19;;;;;;;1.70;1.10;;;26.10;52.90;;;;;;5128666;28;20443;-83
2022/05/25 08:07:33;;;;;;;2.00;1.40;;;26.10;52.90;;;;;;5130258;28;20386;-82
2022/05/25 08:10:10;;;;;;;2.23;1.30;;;26.10;53.50;;;;;;5129456;28;20457;-82
2022/05/25 08:12:39;;;;;;;2.13;1.20;;;26.10;52.90;;;;;;5111883;28;20403;-84
2022/05/25 08:15:08;;;;;;;2.40;1.23;;;26.10;52.90;;;;;;5129370;28;20402;-82
2022/05/25 08:17:34;;;;;;;1.93;1.50;;;26.10;52.90;;;;;;5111429;28;20425;-84
2022/05/25 08:20:41;;;;;;;3.13;1.47;;;26.10;52.90;;;;;;5111133;28;20501;-84
2022/05/25 08:23:09;;;;;;;1.50;1.20;;;26.10;52.90;;;;;;5129390;28;20406;-84
2022/05/25 08:25:35;;;;;;;2.40;1.50;;;26.10;52.90;;;;;;5111885;28;20407;-85
2022/05/25 08:28:02;;;;;;;2.50;1.60;;;26.10;52.90;;;;;;5111601;28;20411;-84
2022/05/25 08:30:29;;;;;;;2.30;1.40;;;26.10;52.90;;;;;;5110286;28;20480;-82
2022/05/25 08:32:55;;;;;;;3.37;1.63;;;26.10;52.90;;;;;;5129198;28;20767;-84
2022/05/25 08:35:21;;;;;;;1.60;1.30;;;26.10;52.90;;;;;;5129231;28;20403;-84
2022/05/25 08:37:47;;;;;;;2.87;1.33;;;26.10;52.90;;;;;;5128586;28;20403;-83
2022/05/25 08:40:20;;;;;;;2.77;1.73;;;26.10;52.90;;;;;;5128373;28;20437;-83
2022/05/25 08:42:58;;;;;;;1.93;1.20;;;26.10;52.90;;;;;;5111172;28;20661;-83
2022/05/25 08:45:38;;;;;;;2.80;1.40;;;26.10;52.90;;;;;;5111233;28;20395;-83
2022/05/25 08:48:06;;;;;;;2.20;1.57;;;26.10;52.90;;;;;;5111292;28;20406;-84
2022/05/25 08:50:32;;;;;;;3.10;1.63;;;26.10;52.90;;;;;;5147324;27;20446;-84
2022/05/25 08:53:00;;;;;;;2.07;1.20;;;26.10;52.90;;;;;;5114131;28;20417;-84
2022/05/25 08:55:58;;;;;;;2.50;1.60;;;26.10;52.90;;;;;;5132013;28;20165;-84
2022/05/25 08:59:07;;;;;;;3.30;1.70;;;26.10;52.90;;;;;;5113732;28;20513;-83
2022/05/25 09:01:42;;;;;;;2.47;1.40;;;26.10;52.90;;;;;;5132697;27;20425;-83
2022/05/25 09:04:21;;;;;;;2.07;1.30;;;26.10;52.90;;;;;;5134651;27;20398;-83
2022/05/25 09:07:01;;;;;;;1.60;1.40;;;26.10;52.90;;;;;;5148157;27;20932;-83
2022/05/25 09:09:39;;;;;;;2.00;1.37;;;26.10;52.90;;;;;;5132247;28;20430;-83
2022/05/25 09:12:24;;;;;;;4.07;1.53;;;26.10;53.00;;;;;;5114736;28;20492;-83
2022/05/25 09:15:13;;;;;;;3.87;1.37;;;26.10;52.90;;;;;;5114718;28;20440;-83
2022/05/25 09:18:01;;;;;;;1.90;1.40;;;26.10;52.90;;;;;;5132445;28;20406;-82
2022/05/25 09:20:42;;;;;;;2.80;1.50;;;26.10;52.90;;;;;;5114274;28;20414;-82
2022/05/25 09:23:09;;;;;;;2.20;1.17;;;26.10;52.90;;;;;;5113329;28;20419;-83
2022/05/25 09:25:35;;;;;;;2.33;1.70;;;26.10;52.90;;;;;;5113626;28;20773;-82
2022/05/25 09:28:07;;;;;;;2.60;1.53;;;26.10;52.90;;;;;;5112928;28;20564;-83
2022/05/25 09:30:36;;;;;;;2.20;1.63;;;26.10;53.00;;;;;;5120933;27;20450;-82
2022/05/25 09:33:11;;;;;;;1.83;1.43;;;26.10;52.90;;;;;;5126349;27;20421;-83
2022/05/25 09:35:43;;;;;;;2.40;1.47;;;26.10;52.90;;;;;;5139113;27;20432;-83
2022/05/25 09:38:30;;;;;;;6.20;1.70;;;26.10;52.90;;;;;;5111788;28;20450;-83
2022/05/25 09:40:56;;;;;;;1.63;1.50;;;26.10;53.00;;;;;;5131436;28;20391;-83
2022/05/25 09:43:24;;;;;;;2.83;1.20;;;26.10;52.90;;;;;;5113596;28;20905;-83
2022/05/25 09:45:53;;;;;;;2.27;1.30;;;26.10;52.90;;;;;;5114423;28;20967;-83
2022/05/25 09:48:32;;;;;;;3.23;1.37;;;26.20;53.00;;;;;;5114739;28;20452;-83
2022/05/25 09:51:23;;;;;;;4.17;1.40;;;26.20;52.90;;;;;;5132311;28;20441;-83
2022/05/25 09:54:13;;;;;;;3.20;2.17;;;26.20;52.90;;;;;;5151628;27;20407;-84
2022/05/25 09:56:45;;;;;;;3.43;1.60;;;26.20;52.90;;;;;;5118653;28;20422;-83
2022/05/25 09:59:21;;;;;;;1.70;1.20;;;26.20;52.90;;;;;;5122722;28;20434;-83
2022/05/25 10:01:48;;;;;;;3.33;1.40;;;26.20;52.90;;;;;;5131836;28;20429;-82
2022/05/25 10:04:51;;;;;;;2.17;1.43;;;26.20;52.90;;;;;;5132837;28;20442;-82
2022/05/25 10:07:38;;;;;;;2.80;1.50;;;26.20;52.90;;;;;;5113993;28;20434;-82
2022/05/25 10:10:09;;;;;;;2.23;1.07;;;26.20;52.90;;;;;;5144699;27;20525;-83
2022/05/25 10:12:45;;;;;;;1.60;1.17;;;26.20;52.90;;;;;;5152900;27;20413;-82
2022/05/25 10:15:28;;;;;;;4.20;2.53;;;26.20;52.90;;;;;;5139968;27;20442;-82
2022/05/25 10:17:54;;;;;;;2.70;1.20;;;26.20;52.90;;;;;;5114154;28;20406;-82
2022/05/25 10:20:31;;;;;;;3.60;1.23;;;26.20;52.80;;;;;;5113960;28;20455;-82
2022/05/25 10:23:13;;;;;;;2.17;1.47;;;26.20;52.80;;;;;;5115017;28;20398;-82
2022/05/25 10:25:45;;;;;;;2.00;1.53;;;26.20;52.70;;;;;;5120274;28;20502;-83
2022/05/25 10:28:22;;;;;;;1.67;1.10;;;26.20;52.80;;;;;;5114006;28;20430;-82
2022/05/25 10:37:11;;;;;;;2.00;1.10;;;26.20;52.70;;;;;;5131925;28;20406;-82
2022/05/25 10:40:01;;;;;;;2.70;1.23;;;26.20;52.70;;;;;;5113360;28;20446;-82
2022/05/25 10:42:37;;;;;;;1.30;1.10;;;26.20;52.70;;;;;;5113748;28;20437;-83
2022/05/25 10:45:06;;;;;;;1.97;1.10;;;26.20;52.80;;;;;;5131798;28;20424;-82
2022/05/25 10:47:51;;;;;;;1.97;1.10;;;26.20;52.70;;;;;;5113517;28;20442;-82
2022/05/25 10:50:32;;;;;;;1.60;1.00;;;26.20;52.70;;;;;;5113125;28;20974;-82
2022/05/25 10:53:08;;;;;;;1.60;1.10;;;26.20;52.70;;;;;;5103915;28;20427;-82
2022/05/25 10:55:51;;;;;;;1.77;1.10;;;26.10;52.60;;;;;;5113270;28;20507;-82
2022/05/25 10:58:32;;;;;;;2.43;1.20;;;26.10;52.60;;;;;;5130929;28;20422;-83
2022/05/25 11:01:09;;;;;;;2.27;1.00;;;26.20;52.70;;;;;;5112584;28;20410;-83
2022/05/25 11:03:56;;;;;;;2.07;1.23;;;26.20;52.70;;;;;;5113021;28;20428;-82
2022/05/25 11:06:43;;;;;;;1.63;1.10;;;26.20;52.70;;;;;;5105215;28;20787;-83
2022/05/25 11:09:18;;;;;;;1.93;1.23;;;26.20;52.70;;;;;;5113051;28;20407;-82
2022/05/25 11:12:09;;;;;;;1.70;1.10;;;26.10;52.70;;;;;;5112640;28;20428;-82
2022/05/25 11:15:24;;;;;;;1.87;1.10;;;26.20;52.70;;;;;;5092335;28;20411;-82
2022/05/25 11:18:22;;;;;;;1.40;1.00;;;26.20;52.70;;;;;;5099226;28;20399;-83
2022/05/25 11:21:09;;;;;;;1.80;1.10;;;26.10;52.70;;;;;;5129125;28;20395;-84
2022/05/25 11:23:47;;;;;;;2.90;1.43;;;26.10;52.70;;;;;;5110899;28;20434;-84
2022/05/25 11:27:03;;;;;;;2.17;1.40;;;26.10;52.70;;;;;;5129515;28;20404;-83
2022/05/25 11:29:40;;;;;;;2.30;1.17;;;26.10;52.70;;;;;;5129622;28;20467;-84
2022/05/25 11:32:34;;;;;;;1.83;1.47;;;26.10;53.20;;;;;;5141903;27;20420;-84
2022/05/25 11:35:13;;;;;;;1.50;1.07;;;26.10;52.70;;;;;;5113107;28;20417;-83
2022/05/25 11:38:01;;;;;;;2.00;1.13;;;26.10;52.70;;;;;;5127946;28;20430;-84
2022/05/25 11:40:54;;;;;;;1.63;1.20;;;26.10;52.50;;;;;;5104671;28;20421;-83
2022/05/25 11:43:53;;;;;;;3.93;1.47;;;26.10;52.40;;;;;;5127942;28;20468;-83
2022/05/25 11:46:42;;;;;;;3.33;1.00;;;26.10;52.40;;;;;;5111339;28;20426;-84
2022/05/25 11:49:23;;;;;;;1.33;1.00;;;26.10;52.20;;;;;;5126846;28;20418;-83
2022/05/25 11:52:10;;;;;;;1.67;1.20;;;26.10;52.10;;;;;;5109928;28;20423;-84
2022/05/25 11:54:57;;;;;;;1.57;1.23;;;26.10;52.00;;;;;;5128568;28;20450;-83
2022/05/25 11:57:42;;;;;;;1.97;1.13;;;26.00;51.90;;;;;;5102731;28;20407;-83
2022/05/25 12:00:26;;;;;;;1.20;1.00;;;26.10;51.80;;;;;;5110151;28;20455;-84
2022/05/25 12:03:24;;;;;;;2.47;1.00;;;26.00;51.70;;;;;;5109289;28;20560;-84
2022/05/25 12:05:58;;;;;;;1.70;1.10;;;26.10;51.80;;;;;;5072534;28;20427;-85
2022/05/25 12:08:48;;;;;;;1.57;1.10;;;26.00;51.60;;;;;;5107736;28;20427;-84
2022/05/25 12:11:17;;;;;;;1.77;1.17;;;26.00;51.60;;;;;;5108824;28;20451;-84
2022/05/25 12:14:21;;;;;;;1.70;0.93;;;26.00;51.60;;;;;;5127592;28;20440;-84
2022/05/25 12:16:48;;;;;;;1.13;0.90;;;26.00;51.60;;;;;;5098494;28;20415;-84
2022/05/25 12:19:19;;;;;;;1.60;0.90;;;26.00;51.50;;;;;;5107001;28;20437;-84
2022/05/25 12:21:50;;;;;;;1.83;1.40;;;26.00;51.60;;;;;;5109916;28;20519;-84
2022/05/25 12:24:21;;;;;;;1.40;1.00;;;25.90;51.50;;;;;;5111205;28;20418;-84
2022/05/25 12:26:47;;;;;;;1.73;1.07;;;26.00;51.60;;;;;;5113876;28;20487;-84
2022/05/25 12:29:38;;;;;;;2.20;1.63;;;26.00;51.80;;;;;;5113374;28;20421;-84
2022/05/25 12:32:07;;;;;;;1.40;1.00;;;26.00;51.80;;;;;;5115730;28;20430;-84
2022/05/25 12:34:40;;;;;;;2.13;1.00;;;26.00;51.90;;;;;;5098874;28;20437;-82
2022/05/25 12:37:08;;;;;;;1.10;1.00;;;26.00;51.90;;;;;;5114108;28;20459;-84
2022/05/25 12:39:43;;;;;;;1.47;1.10;;;26.00;52.00;;;;;;5126435;28;20414;-83
2022/05/25 12:42:24;;;;;;;1.20;1.10;;;26.00;52.00;;;;;;5117947;28;20466;-83
2022/05/25 12:50:33;;;;;;;1.23;0.80;;;26.00;52.00;;;;;;5136556;27;20464;-82
2022/05/25 12:53:25;;;;;;;1.10;0.97;;;26.00;52.00;;;;;;5113827;28;20411;-83
2022/05/25 12:56:15;;;;;;;2.60;0.97;;;26.00;52.00;;;;;;5115146;28;20402;-83
2022/05/25 12:59:06;;;;;;;1.60;1.17;;;26.00;52.10;;;;;;5133824;28;20429;-84
2022/05/25 13:01:38;;;;;;;1.30;0.87;;;26.00;52.00;;;;;;5051773;28;20411;-83
2022/05/25 13:04:39;;;;;;;3.23;1.10;;;26.00;52.10;;;;;;5034563;28;20407;-83
2022/05/25 13:07:29;;;;;;;1.30;1.00;;;26.00;52.00;;;;;;5051093;28;20406;-83
2022/05/25 13:09:55;;;;;;;2.10;1.00;;;26.00;52.00;;;;;;5040635;28;20535;-83
2022/05/25 13:12:39;;;;;;;3.17;0.90;;;26.00;52.10;;;;;;5034004;28;20426;-83
2022/05/25 13:15:26;;;;;;;1.40;0.90;;;26.00;52.10;;;;;;5034164;28;20179;-83
2022/05/25 13:18:01;;;;;;;1.00;0.90;;;26.00;52.00;;;;;;5033134;28;20413;-83
2022/05/25 13:20:30;;;;;;;1.73;1.37;;;26.00;51.90;;;;;;5034158;28;20562;-83
2022/05/25 13:23:09;;;;;;;1.60;1.10;;;26.00;51.90;;;;;;5050301;28;20501;-84
2022/05/25 13:29:16;;;;;;;1.40;1.03;;;26.00;51.90;;;;;;5049996;28;20385;-83
2022/05/25 13:31:58;;;;;;;1.20;0.90;;;26.00;51.80;;;;;;5034102;28;20843;-85
2022/05/25 13:34:29;;;;;;;1.10;1.00;;;26.00;51.80;;;;;;5033440;28;20509;-84
2022/05/25 13:37:05;;;;;;;1.83;0.80;;;26.00;51.80;;;;;;5033644;28;20417;-83
2022/05/25 13:39:32;;;;;;;1.60;0.90;;;26.10;51.80;;;;;;5108548;28;20418;-84
2022/05/25 13:42:04;;;;;;;1.30;1.10;;;26.10;51.80;;;;;;5115282;28;20422;-84
2022/05/25 13:44:44;;;;;;;1.30;1.00;;;26.10;51.70;;;;;;5112959;28;20485;-84
2022/05/25 13:47:31;;;;;;;2.77;1.10;;;26.10;51.60;;;;;;5133498;28;20383;-84
2022/05/25 13:49:58;;;;;;;1.50;0.87;;;26.10;51.60;;;;;;5114176;28;20462;-84
2022/05/25 13:52:26;;;;;;;1.73;0.80;;;26.10;51.60;;;;;;5148375;27;20496;-84
2022/05/25 13:55:04;;;;;;;1.23;1.10;;;26.10;51.50;;;;;;5132626;28;20394;-84
2022/05/25 13:57:37;;;;;;;1.00;0.80;;;26.10;51.50;;;;;;5113526;28;20996;-84
2022/05/25 14:00:15;;;;;;;1.20;1.00;;;26.10;51.40;;;;;;5113957;28;20435;-85
2022/05/25 14:02:53;;;;;;;1.00;0.83;;;26.10;51.40;;;;;;5114190;28;20407;-83